createdAt,value
2017-06-22T00:00:40.901Z,16.94
2017-06-22T00:01:53.447Z,16.87
2017-06-22T00:03:05.986Z,16.82
2017-06-22T00:04:18.529Z,16.73
2017-06-22T00:05:30.774Z,16.76
2017-06-22T00:06:43.269Z,16.72
2017-06-22T00:07:55.794Z,16.68
2017-06-22T00:09:07.990Z,16.62
2017-06-22T00:10:20.532Z,16.58
2017-06-22T00:11:33.058Z,16.57
2017-06-22T00:12:45.322Z,16.46
2017-06-22T00:13:57.849Z,16.49
2017-06-22T00:15:10.349Z,16.44
2017-06-22T00:16:22.873Z,16.31
2017-06-22T00:17:35.084Z,16.39
2017-06-22T00:18:47.634Z,16.31
2017-06-22T00:20:00.174Z,16.28
2017-06-22T00:21:12.388Z,16.29
2017-06-22T00:22:24.620Z,16.29
2017-06-22T00:23:36.546Z,16.31
2017-06-22T00:24:49.359Z,16.22
2017-06-22T00:26:01.287Z,16.22
2017-06-22T00:27:13.812Z,16.22
2017-06-22T00:28:26.375Z,16.18
2017-06-22T00:29:38.903Z,16.18
2017-06-22T00:30:51.139Z,16.17
2017-06-22T00:32:03.642Z,16.13
2017-06-22T00:33:16.162Z,16.12
2017-06-22T00:34:28.383Z,16
2017-06-22T00:35:40.896Z,15.96
2017-06-22T00:36:53.117Z,15.94
2017-06-22T00:38:05.651Z,15.9
2017-06-22T00:39:18.191Z,15.87
2017-06-22T00:40:30.735Z,15.91
2017-06-22T00:41:42.987Z,15.84
2017-06-22T00:42:55.233Z,15.75
2017-06-22T00:44:07.196Z,15.65
2017-06-22T00:45:19.443Z,15.72
2017-06-22T00:46:31.997Z,15.62
2017-06-22T00:47:44.217Z,15.59
2017-06-22T00:48:56.731Z,15.51
2017-06-22T00:50:09.276Z,15.57
2017-06-22T00:51:21.783Z,15.48
2017-06-22T00:52:34.302Z,15.52
2017-06-22T00:53:46.546Z,15.43
2017-06-22T00:54:58.470Z,15.44
2017-06-22T00:56:10.980Z,15.39
2017-06-22T00:57:23.224Z,15.32
2017-06-22T00:58:35.745Z,15.35
2017-06-22T00:59:48.302Z,15.33
2017-06-22T01:01:00.845Z,15.35
2017-06-22T01:02:13.365Z,15.3
2017-06-22T01:03:25.594Z,15.15
2017-06-22T01:04:37.826Z,15.15
2017-06-22T01:05:50.353Z,15.05
2017-06-22T01:07:02.878Z,15.07
2017-06-22T01:08:15.699Z,15.1
2017-06-22T01:09:27.632Z,15.02
2017-06-22T01:10:40.162Z,15.07
2017-06-22T01:11:52.728Z,15.02
2017-06-22T01:13:05.278Z,14.96
2017-06-22T01:14:17.819Z,14.94
2017-06-22T01:15:30.328Z,14.92
2017-06-22T01:16:42.520Z,14.97
2017-06-22T01:17:55.042Z,14.81
2017-06-22T01:19:07.832Z,14.89
2017-06-22T01:20:20.353Z,14.81
2017-06-22T01:21:32.878Z,14.78
2017-06-22T01:22:45.431Z,14.81
2017-06-22T01:23:57.662Z,14.68
2017-06-22T01:25:10.479Z,14.71
2017-06-22T01:26:22.714Z,14.68
2017-06-22T01:27:35.246Z,14.62
2017-06-22T01:28:47.458Z,14.59
2017-06-22T01:29:59.995Z,14.62
2017-06-22T01:31:12.224Z,14.51
2017-06-22T01:32:24.759Z,14.51
2017-06-22T01:33:36.703Z,14.59
2017-06-22T01:34:48.930Z,14.53
2017-06-22T01:36:01.504Z,14.49
2017-06-22T01:37:13.721Z,14.45
2017-06-22T01:38:25.961Z,14.4
2017-06-22T01:39:38.172Z,14.48
2017-06-22T01:40:50.376Z,14.37
2017-06-22T01:42:02.600Z,14.38
2017-06-22T01:43:15.130Z,14.22
2017-06-22T01:44:27.663Z,14.28
2017-06-22T01:45:39.884Z,14.23
2017-06-22T01:46:52.114Z,14.28
2017-06-22T01:48:04.653Z,14.23
2017-06-22T01:49:16.884Z,14.18
2017-06-22T01:50:29.429Z,14.18
2017-06-22T01:51:41.948Z,14.19
2017-06-22T01:52:54.489Z,14.18
2017-06-22T01:54:06.723Z,14.15
2017-06-22T01:55:18.945Z,14.11
2017-06-22T01:56:31.460Z,14.05
2017-06-22T01:57:43.983Z,14.05
2017-06-22T01:58:56.523Z,14.07
2017-06-22T02:00:09.047Z,13.97
2017-06-22T02:01:21.610Z,14
2017-06-22T02:02:34.164Z,14.03
2017-06-22T02:03:46.702Z,13.98
2017-06-22T02:04:59.227Z,13.98
2017-06-22T02:06:11.740Z,13.85
2017-06-22T02:07:24.244Z,13.97
2017-06-22T02:08:36.786Z,13.85
2017-06-22T02:09:48.732Z,13.85
2017-06-22T02:11:01.261Z,13.94
2017-06-22T02:12:13.806Z,13.85
2017-06-22T02:13:26.345Z,13.78
2017-06-22T02:14:38.886Z,13.82
2017-06-22T02:15:51.157Z,13.79
2017-06-22T02:17:03.382Z,13.86
2017-06-22T02:18:15.582Z,13.8
2017-06-22T02:19:28.108Z,13.8
2017-06-22T02:20:40.368Z,13.83
2017-06-22T02:21:52.899Z,13.67
2017-06-22T02:23:05.437Z,13.76
2017-06-22T02:24:17.929Z,13.68
2017-06-22T02:25:30.439Z,13.67
2017-06-22T02:26:42.632Z,13.64
2017-06-22T02:27:55.171Z,13.64
2017-06-22T02:29:07.687Z,13.67
2017-06-22T02:30:20.234Z,13.73
2017-06-22T02:31:32.791Z,13.65
2017-06-22T02:32:44.717Z,13.61
2017-06-22T02:33:57.230Z,13.71
2017-06-22T02:35:09.775Z,13.62
2017-06-22T02:36:22.271Z,13.58
2017-06-22T02:37:34.538Z,13.54
2017-06-22T02:38:46.480Z,13.54
2017-06-22T02:39:59.009Z,13.55
2017-06-22T02:41:11.552Z,13.47
2017-06-22T02:42:23.471Z,13.49
2017-06-22T02:43:35.703Z,13.55
2017-06-22T02:44:48.243Z,13.5
2017-06-22T02:46:01.007Z,13.5
2017-06-22T02:47:13.538Z,13.49
2017-06-22T02:48:26.081Z,13.46
2017-06-22T02:49:38.301Z,13.31
2017-06-22T02:50:50.843Z,13.42
2017-06-22T02:52:03.372Z,13.39
2017-06-22T02:53:15.918Z,13.4
2017-06-22T02:54:28.463Z,13.36
2017-06-22T02:55:40.981Z,13.37
2017-06-22T02:56:53.202Z,13.33
2017-06-22T02:58:05.440Z,13.24
2017-06-22T02:59:17.989Z,13.31
2017-06-22T03:00:30.214Z,13.27
2017-06-22T03:01:42.127Z,13.21
2017-06-22T03:02:54.660Z,13.21
2017-06-22T03:04:07.222Z,13.24
2017-06-22T03:05:19.441Z,13.3
2017-06-22T03:06:31.686Z,13.24
2017-06-22T03:07:44.519Z,13.3
2017-06-22T03:08:57.042Z,13.19
2017-06-22T03:10:09.576Z,13.19
2017-06-22T03:11:22.113Z,13.21
2017-06-22T03:12:34.341Z,13.19
2017-06-22T03:13:46.873Z,13.2
2017-06-22T03:14:59.390Z,13.2
2017-06-22T03:16:11.586Z,13.17
2017-06-22T03:17:24.136Z,13.24
2017-06-22T03:18:36.959Z,13.17
2017-06-22T03:19:48.895Z,13.11
2017-06-22T03:21:01.415Z,13.12
2017-06-22T03:22:13.934Z,13.11
2017-06-22T03:23:26.465Z,13.13
2017-06-22T03:24:38.978Z,13.11
2017-06-22T03:25:51.503Z,13.17
2017-06-22T03:27:04.002Z,13.16
2017-06-22T03:28:16.545Z,13.16
2017-06-22T03:29:28.743Z,13.11
2017-06-22T03:30:40.990Z,13.12
2017-06-22T03:31:53.551Z,13.09
2017-06-22T03:33:06.056Z,13.13
2017-06-22T03:34:18.571Z,13.16
2017-06-22T03:35:31.101Z,13.17
2017-06-22T03:36:43.338Z,13.13
2017-06-22T03:37:55.863Z,13.16
2017-06-22T03:39:08.405Z,13.08
2017-06-22T03:40:20.946Z,13.02
2017-06-22T03:41:33.168Z,13.12
2017-06-22T03:42:45.396Z,13.19
2017-06-22T03:43:57.917Z,13.19
2017-06-22T03:45:10.459Z,13.11
2017-06-22T03:46:22.988Z,13.13
2017-06-22T03:47:35.209Z,13.17
2017-06-22T03:48:47.154Z,13.17
2017-06-22T03:49:59.647Z,13.12
2017-06-22T03:51:12.460Z,13.08
2017-06-22T03:52:24.964Z,13.16
2017-06-22T03:53:37.477Z,13.13
2017-06-22T03:54:50.034Z,13.16
2017-06-22T03:56:02.574Z,13.23
2017-06-22T03:57:15.103Z,13.11
2017-06-22T03:58:27.622Z,13.17
2017-06-22T03:59:39.860Z,13.16
2017-06-22T04:00:52.394Z,13.19
2017-06-22T04:02:04.856Z,13.26
2017-06-22T04:03:17.422Z,13.28
2017-06-22T04:04:29.324Z,13.28
2017-06-22T04:05:41.587Z,13.24
2017-06-22T04:06:54.133Z,13.24
2017-06-22T04:08:06.681Z,13.26
2017-06-22T04:09:19.202Z,13.23
2017-06-22T04:10:31.736Z,13.33
2017-06-22T04:11:43.994Z,13.33
2017-06-22T04:12:56.498Z,13.39
2017-06-22T04:14:09.040Z,13.42
2017-06-22T04:15:21.545Z,13.49
2017-06-22T04:16:33.776Z,13.39
2017-06-22T04:17:46.011Z,13.5
2017-06-22T04:18:58.553Z,13.5
2017-06-22T04:20:10.816Z,13.55
2017-06-22T04:21:23.341Z,13.61
2017-06-22T04:22:35.860Z,13.58
2017-06-22T04:23:47.490Z,13.58
2017-06-22T04:25:00.054Z,13.62
2017-06-22T04:26:12.291Z,13.67
2017-06-22T04:27:24.494Z,13.65
2017-06-22T04:28:36.736Z,13.7
2017-06-22T04:29:48.658Z,13.82
2017-06-22T04:31:01.201Z,13.82
2017-06-22T04:32:13.746Z,13.82
2017-06-22T04:33:26.292Z,13.8
2017-06-22T04:34:38.745Z,13.89
2017-06-22T04:35:50.995Z,13.94
2017-06-22T04:37:03.513Z,13.97
2017-06-22T04:38:16.050Z,13.94
2017-06-22T04:39:28.272Z,14.01
2017-06-22T04:40:40.795Z,14.07
2017-06-22T04:41:53.004Z,14.05
2017-06-22T04:43:05.538Z,14.11
2017-06-22T04:44:18.073Z,14.2
2017-06-22T04:45:30.876Z,14.22
2017-06-22T04:46:43.105Z,14.26
2017-06-22T04:47:55.625Z,14.31
2017-06-22T04:49:08.164Z,14.33
2017-06-22T04:50:20.710Z,14.44
2017-06-22T04:51:32.984Z,14.43
2017-06-22T04:52:45.202Z,14.55
2017-06-22T04:53:57.734Z,14.61
2017-06-22T04:55:09.380Z,14.55
2017-06-22T04:56:21.943Z,14.62
2017-06-22T04:57:34.190Z,14.63
2017-06-22T04:58:46.709Z,14.68
2017-06-22T04:59:58.937Z,14.74
2017-06-22T05:01:11.503Z,14.78
2017-06-22T05:02:24.021Z,14.82
2017-06-22T05:03:36.544Z,14.86
2017-06-22T05:04:48.461Z,14.9
2017-06-22T05:06:00.964Z,15.02
2017-06-22T05:07:13.502Z,15.11
2017-06-22T05:08:26.027Z,15.04
2017-06-22T05:09:38.557Z,15.23
2017-06-22T05:10:50.790Z,15.27
2017-06-22T05:12:03.026Z,15.3
2017-06-22T05:13:15.565Z,15.43
2017-06-22T05:14:27.506Z,15.47
2017-06-22T05:15:40.050Z,15.55
2017-06-22T05:16:52.599Z,15.7
2017-06-22T05:18:06.230Z,15.83
2017-06-22T05:19:18.761Z,16.03
2017-06-22T05:20:31.011Z,16.17
2017-06-22T05:21:43.532Z,16.31
2017-06-22T05:22:55.735Z,16.51
2017-06-22T05:24:08.278Z,16.66
2017-06-22T05:25:20.770Z,16.89
2017-06-22T05:26:32.394Z,17.01
2017-06-22T05:27:44.919Z,17.32
2017-06-22T05:28:57.464Z,17.54
2017-06-22T05:30:09.686Z,17.86
2017-06-22T05:31:22.207Z,18.18
2017-06-22T05:32:34.766Z,18.42
2017-06-22T05:33:46.695Z,18.68
2017-06-22T05:34:59.244Z,19.07
2017-06-22T05:36:11.762Z,19.24
2017-06-22T05:37:24.301Z,19.35
2017-06-22T05:38:36.849Z,19.45
2017-06-22T05:39:49.625Z,19.59
2017-06-22T05:41:01.870Z,19.75
2017-06-22T05:42:14.416Z,19.78
2017-06-22T05:43:26.959Z,19.78
2017-06-22T05:44:39.175Z,19.89
2017-06-22T05:45:51.733Z,19.87
2017-06-22T05:47:03.975Z,19.9
2017-06-22T05:48:16.196Z,19.93
2017-06-22T05:49:28.412Z,19.87
2017-06-22T05:50:40.967Z,19.84
2017-06-22T05:51:53.511Z,19.85
2017-06-22T05:53:05.730Z,19.72
2017-06-22T05:54:18.244Z,19.81
2017-06-22T05:55:30.788Z,19.77
2017-06-22T05:56:43.013Z,19.79
2017-06-22T05:57:54.939Z,19.71
2017-06-22T05:59:07.187Z,19.78
2017-06-22T06:00:19.749Z,19.66
2017-06-22T06:01:32.271Z,19.71
2017-06-22T06:02:44.775Z,19.72
2017-06-22T06:03:57.296Z,19.77
2017-06-22T06:05:09.834Z,19.7
2017-06-22T06:06:22.405Z,19.77
2017-06-22T06:07:34.655Z,19.82
2017-06-22T06:08:47.172Z,19.67
2017-06-22T06:09:59.703Z,19.67
2017-06-22T06:11:11.940Z,19.78
2017-06-22T06:12:24.499Z,19.85
2017-06-22T06:13:37.031Z,19.99
2017-06-22T06:14:49.234Z,20.1
2017-06-22T06:16:01.773Z,20.14
2017-06-22T06:17:14.318Z,20.21
2017-06-22T06:18:27.120Z,20.22
2017-06-22T06:19:39.640Z,20.32
2017-06-22T06:20:52.185Z,20.37
2017-06-22T06:22:04.705Z,20.58
2017-06-22T06:23:16.945Z,20.78
2017-06-22T06:24:29.524Z,21.13
2017-06-22T06:25:42.063Z,21.32
2017-06-22T06:26:54.591Z,21.75
2017-06-22T06:28:06.540Z,22.12
2017-06-22T06:29:19.103Z,22.55
2017-06-22T06:30:31.356Z,22.78
2017-06-22T06:31:43.598Z,22.95
2017-06-22T06:32:56.119Z,23.2
2017-06-22T06:34:08.643Z,23.4
2017-06-22T06:35:21.154Z,23.55
2017-06-22T06:36:33.706Z,23.77
2017-06-22T06:37:46.223Z,23.99
2017-06-22T06:38:58.453Z,24.1
2017-06-22T06:40:10.700Z,24.34
2017-06-22T06:41:23.241Z,24.65
2017-06-22T06:42:35.779Z,24.89
2017-06-22T06:43:48.035Z,25.21
2017-06-22T06:45:00.578Z,25.63
2017-06-22T06:46:12.827Z,25.86
2017-06-22T06:47:25.365Z,26.22
2017-06-22T06:48:37.616Z,26.68
2017-06-22T06:49:50.137Z,27.03
2017-06-22T06:51:02.683Z,27.43
2017-06-22T06:52:14.905Z,27.71
2017-06-22T06:53:27.125Z,28.03
2017-06-22T06:54:39.692Z,28.23
2017-06-22T06:55:51.917Z,28.4
2017-06-22T06:57:04.169Z,28.7
2017-06-22T06:58:16.701Z,28.72
2017-06-22T06:59:29.209Z,28.77
2017-06-22T07:00:41.471Z,28.96
2017-06-22T07:01:53.722Z,29.1
2017-06-22T07:03:05.668Z,29.25
2017-06-22T07:04:17.611Z,29.46
2017-06-22T07:05:30.138Z,29.74
2017-06-22T07:06:42.699Z,29.83
2017-06-22T07:07:54.951Z,30.13
2017-06-22T07:09:07.201Z,30.17
2017-06-22T07:10:19.764Z,30.43
2017-06-22T07:11:32.325Z,30.38
2017-06-22T07:12:44.901Z,30.46
2017-06-22T07:13:56.859Z,30.43
2017-06-22T07:15:09.107Z,30.4
2017-06-22T07:16:21.668Z,30.35
2017-06-22T07:17:34.496Z,30.4
2017-06-22T07:18:46.734Z,30.51
2017-06-22T07:19:58.679Z,30.58
2017-06-22T07:21:10.948Z,30.65
2017-06-22T07:22:23.177Z,30.69
2017-06-22T07:23:35.426Z,30.71
2017-06-22T07:24:47.669Z,30.71
2017-06-22T07:25:59.611Z,30.62
2017-06-22T07:27:11.865Z,30.52
2017-06-22T07:28:23.807Z,30.49
2017-06-22T07:29:36.374Z,30.56
2017-06-22T07:30:48.895Z,30.63
2017-06-22T07:32:01.162Z,30.71
2017-06-22T07:33:13.715Z,30.69
2017-06-22T07:34:26.282Z,30.65
2017-06-22T07:35:38.810Z,30.67
2017-06-22T07:36:51.378Z,30.56
2017-06-22T07:38:03.915Z,30.44
2017-06-22T07:39:16.398Z,30.43
2017-06-22T07:40:28.662Z,30.23
2017-06-22T07:41:40.605Z,30.05
2017-06-22T07:42:53.153Z,30.1
2017-06-22T07:44:05.399Z,29.94
2017-06-22T07:45:17.316Z,29.89
2017-06-22T07:46:29.263Z,29.8
2017-06-22T07:47:41.816Z,29.68
2017-06-22T07:48:54.382Z,29.71
2017-06-22T07:50:06.315Z,29.74
2017-06-22T07:51:18.254Z,29.79
2017-06-22T07:52:30.826Z,29.9
2017-06-22T07:53:42.766Z,30.01
2017-06-22T07:54:55.318Z,30.06
2017-06-22T07:56:07.857Z,30.17
2017-06-22T07:57:20.401Z,30.17
2017-06-22T07:58:32.646Z,30.16
2017-06-22T07:59:44.878Z,30.13
2017-06-22T08:00:56.526Z,30.13
2017-06-22T08:02:09.071Z,30.03
2017-06-22T08:03:21.635Z,29.9
2017-06-22T08:04:33.855Z,29.76
2017-06-22T08:05:46.401Z,29.71
2017-06-22T08:06:58.966Z,29.61
2017-06-22T08:08:11.501Z,29.49
2017-06-22T08:09:24.063Z,29.42
2017-06-22T08:10:36.606Z,29.34
2017-06-22T08:11:49.151Z,29.28
2017-06-22T08:13:01.702Z,29.05
2017-06-22T08:14:13.931Z,28.9
2017-06-22T08:15:26.175Z,28.94
2017-06-22T08:16:38.447Z,28.82
2017-06-22T08:17:50.694Z,28.74
2017-06-22T08:19:02.935Z,28.82
2017-06-22T08:20:15.174Z,28.8
2017-06-22T08:21:27.406Z,28.83
2017-06-22T08:22:39.648Z,28.96
2017-06-22T08:23:52.219Z,29.22
2017-06-22T08:25:04.732Z,29.4
2017-06-22T08:26:16.985Z,29.61
2017-06-22T08:27:29.529Z,29.84
2017-06-22T08:28:41.759Z,30.02
2017-06-22T08:29:53.994Z,30.43
2017-06-22T08:31:06.544Z,30.54
2017-06-22T08:32:18.770Z,30.74
2017-06-22T08:33:31.032Z,30.81
2017-06-22T08:34:42.981Z,30.91
2017-06-22T08:35:54.928Z,31.04
2017-06-22T08:37:07.475Z,31.05
2017-06-22T08:38:20.025Z,31.14
2017-06-22T08:39:32.266Z,31.37
2017-06-22T08:40:44.833Z,31.47
2017-06-22T08:41:57.383Z,31.57
2017-06-22T08:43:09.633Z,31.72
2017-06-22T08:44:21.578Z,31.74
2017-06-22T08:45:33.238Z,31.95
2017-06-22T08:46:45.485Z,31.89
2017-06-22T08:47:58.030Z,32.11
2017-06-22T08:49:10.312Z,32.17
2017-06-22T08:50:22.575Z,32.27
2017-06-22T08:51:35.105Z,32.35
2017-06-22T08:52:47.674Z,32.45
2017-06-22T08:54:00.214Z,32.46
2017-06-22T08:55:12.156Z,32.56
2017-06-22T08:56:24.390Z,32.75
2017-06-22T08:57:36.925Z,32.83
2017-06-22T08:58:48.879Z,32.98
2017-06-22T09:00:01.447Z,33.15
2017-06-22T09:01:13.393Z,33.23
2017-06-22T09:02:25.958Z,33.47
2017-06-22T09:03:38.487Z,33.36
2017-06-22T09:04:50.723Z,33.44
2017-06-22T09:06:03.278Z,33.55
2017-06-22T09:07:15.551Z,33.7
2017-06-22T09:08:27.520Z,33.82
2017-06-22T09:09:39.756Z,33.89
2017-06-22T09:10:52.330Z,34.06
2017-06-22T09:12:04.602Z,34.25
2017-06-22T09:13:16.879Z,34.44
2017-06-22T09:14:28.790Z,34.53
2017-06-22T09:15:41.063Z,34.65
2017-06-22T09:16:52.714Z,34.79
2017-06-22T09:18:04.656Z,34.96
2017-06-22T09:19:16.638Z,35.16
2017-06-22T09:20:28.882Z,35.27
2017-06-22T09:21:40.841Z,35.5
2017-06-22T09:22:53.115Z,35.72
2017-06-22T09:24:05.690Z,35.86
2017-06-22T09:25:17.958Z,35.81
2017-06-22T09:26:30.228Z,35.88
2017-06-22T09:27:42.453Z,36.05
2017-06-22T09:28:54.995Z,35.94
2017-06-22T09:30:07.565Z,35.96
2017-06-22T09:31:19.517Z,35.76
2017-06-22T09:32:31.730Z,35.87
2017-06-22T09:33:44.278Z,35.84
2017-06-22T09:34:56.829Z,35.86
2017-06-22T09:36:09.396Z,35.88
2017-06-22T09:37:21.374Z,35.96
2017-06-22T09:38:33.337Z,36.01
2017-06-22T09:39:45.608Z,36.14
2017-06-22T09:40:57.875Z,36.2
2017-06-22T09:42:09.881Z,36.33
2017-06-22T09:43:22.131Z,36.36
2017-06-22T09:44:34.392Z,36.41
2017-06-22T09:45:46.616Z,36.45
2017-06-22T09:46:58.859Z,36.5
2017-06-22T09:48:11.109Z,36.6
2017-06-22T09:49:23.684Z,36.75
2017-06-22T09:50:35.949Z,36.91
2017-06-22T09:51:48.174Z,36.97
2017-06-22T09:53:00.739Z,37
2017-06-22T09:54:13.305Z,37.04
2017-06-22T09:55:25.552Z,36.88
2017-06-22T09:56:37.825Z,36.81
2017-06-22T09:57:50.081Z,37.04
2017-06-22T09:59:02.652Z,36.96
2017-06-22T10:00:14.645Z,37.06
2017-06-22T10:01:26.891Z,37.28
2017-06-22T10:02:39.166Z,37.44
2017-06-22T10:03:51.384Z,37.72
2017-06-22T10:05:03.636Z,37.79
2017-06-22T10:06:15.618Z,37.92
2017-06-22T10:07:27.847Z,37.91
2017-06-22T10:08:40.435Z,38
2017-06-22T10:09:52.978Z,38.04
2017-06-22T10:11:05.237Z,38.02
2017-06-22T10:12:17.505Z,38.01
2017-06-22T10:13:29.128Z,38.13
2017-06-22T10:14:41.097Z,38.14
2017-06-22T10:15:53.660Z,38.2
2017-06-22T10:17:05.936Z,38.19
2017-06-22T10:18:18.206Z,38.32
2017-06-22T10:19:30.182Z,38.41
2017-06-22T10:20:42.743Z,38.54
2017-06-22T10:21:55.320Z,38.62
2017-06-22T10:23:07.594Z,38.77
2017-06-22T10:24:19.854Z,38.85
2017-06-22T10:25:31.832Z,39
2017-06-22T10:26:44.098Z,39.11
2017-06-22T10:27:56.367Z,38.98
2017-06-22T10:29:08.920Z,38.92
2017-06-22T10:30:20.888Z,39
2017-06-22T10:31:33.432Z,38.88
2017-06-22T10:32:45.728Z,38.5
2017-06-22T10:33:57.971Z,38.65
2017-06-22T10:35:10.525Z,38.75
2017-06-22T10:36:22.788Z,38.85
2017-06-22T10:37:34.763Z,39.01
2017-06-22T10:38:47.017Z,38.92
2017-06-22T10:39:59.283Z,38.9
2017-06-22T10:41:11.846Z,38.92
2017-06-22T10:42:24.129Z,38.88
2017-06-22T10:43:36.701Z,39
2017-06-22T10:44:49.262Z,39.07
2017-06-22T10:46:01.531Z,39.03
2017-06-22T10:47:13.184Z,38.98
2017-06-22T10:48:25.751Z,38.73
2017-06-22T10:49:37.984Z,38.76
2017-06-22T10:50:50.554Z,38.84
2017-06-22T10:52:03.113Z,39.03
2017-06-22T10:53:15.663Z,38.96
2017-06-22T10:54:27.909Z,39.05
2017-06-22T10:55:40.475Z,38.9
2017-06-22T10:56:53.020Z,38.79
2017-06-22T10:58:04.947Z,38.63
2017-06-22T10:59:17.213Z,38.51
2017-06-22T11:00:29.769Z,38.14
2017-06-22T11:01:42.027Z,38.05
2017-06-22T11:02:54.600Z,37.83
2017-06-22T11:04:06.847Z,37.76
2017-06-22T11:05:19.076Z,37.47
2017-06-22T11:06:31.371Z,37.36
2017-06-22T11:07:43.361Z,37.26
2017-06-22T11:08:55.902Z,37.14
2017-06-22T11:10:07.876Z,37.09
2017-06-22T11:11:20.452Z,36.76
2017-06-22T11:12:32.698Z,36.51
2017-06-22T11:13:45.253Z,36.33
2017-06-22T11:14:57.811Z,36.13
2017-06-22T11:16:10.386Z,35.91
2017-06-22T11:17:22.911Z,35.82
2017-06-22T11:18:35.173Z,35.63
2017-06-22T11:19:47.444Z,35.49
2017-06-22T11:20:59.962Z,35.32
2017-06-22T11:22:12.192Z,35.04
2017-06-22T11:23:24.140Z,34.85
2017-06-22T11:24:36.726Z,34.59
2017-06-22T11:25:48.981Z,34.4
2017-06-22T11:27:01.523Z,34.06
2017-06-22T11:28:13.747Z,33.73
2017-06-22T11:29:25.669Z,33.58
2017-06-22T11:30:38.204Z,33.29
2017-06-22T11:31:50.758Z,33.1
2017-06-22T11:33:03.006Z,33.05
2017-06-22T11:34:15.278Z,32.78
2017-06-22T11:35:27.512Z,32.54
2017-06-22T11:36:39.758Z,32.44
2017-06-22T11:37:51.679Z,32.16
2017-06-22T11:39:03.033Z,32.05
2017-06-22T11:40:15.582Z,31.95
2017-06-22T11:41:27.527Z,31.74
2017-06-22T11:42:40.075Z,31.45
2017-06-22T11:43:52.638Z,31.29
2017-06-22T11:45:05.209Z,31.07
2017-06-22T11:46:17.160Z,30.95
2017-06-22T11:47:29.734Z,30.74
2017-06-22T11:48:41.696Z,30.49
2017-06-22T11:49:53.645Z,30.48
2017-06-22T11:51:06.171Z,30.33
2017-06-22T11:52:18.143Z,30.18
2017-06-22T11:53:30.402Z,29.95
2017-06-22T11:54:42.958Z,29.79
2017-06-22T11:55:55.221Z,29.73
2017-06-22T11:57:07.772Z,29.59
2017-06-22T11:58:19.689Z,29.43
2017-06-22T11:59:32.217Z,29.28
2017-06-22T12:00:44.134Z,29.16
2017-06-22T12:01:55.756Z,29.03
2017-06-22T12:03:07.969Z,29.03
2017-06-22T12:04:19.627Z,28.97
2017-06-22T12:05:32.189Z,28.82
2017-06-22T12:06:44.715Z,28.84
2017-06-22T12:07:57.265Z,28.7
2017-06-22T12:09:08.909Z,28.67
2017-06-22T12:10:21.208Z,28.57
2017-06-22T12:11:33.452Z,28.46
2017-06-22T12:12:45.999Z,28.43
2017-06-22T12:13:58.242Z,28.35
2017-06-22T12:15:10.185Z,28.28
2017-06-22T12:16:21.833Z,28.22
2017-06-22T12:17:34.048Z,28.12
2017-06-22T12:18:46.302Z,28.01
2017-06-22T12:19:58.553Z,27.91
2017-06-22T12:21:11.101Z,27.79
2017-06-22T12:22:23.657Z,27.67
2017-06-22T12:23:35.299Z,27.57
2017-06-22T12:24:47.228Z,27.35
2017-06-22T12:25:59.745Z,27.2
2017-06-22T12:27:12.266Z,27.05
2017-06-22T12:28:24.809Z,26.86
2017-06-22T12:29:36.737Z,26.71
2017-06-22T12:30:48.961Z,26.56
2017-06-22T12:32:01.525Z,26.33
2017-06-22T12:33:14.050Z,26.33
2017-06-22T12:34:26.266Z,26.07
2017-06-22T12:35:38.509Z,25.99
2017-06-22T12:36:50.730Z,25.85
2017-06-22T12:38:02.976Z,25.71
2017-06-22T12:39:15.561Z,25.61
2017-06-22T12:40:27.506Z,25.3
2017-06-22T12:41:40.050Z,25.12
2017-06-22T12:42:52.336Z,24.77
2017-06-22T12:44:04.554Z,24.24
2017-06-22T12:45:17.087Z,23.73
2017-06-22T12:46:29.347Z,23.18
2017-06-22T12:47:41.921Z,22.36
2017-06-22T12:48:54.423Z,21.92
2017-06-22T12:50:06.671Z,21.44
2017-06-22T12:51:18.960Z,20.66
2017-06-22T12:52:31.509Z,19.78
2017-06-22T12:53:44.030Z,19.32
2017-06-22T12:54:56.578Z,19.19
2017-06-22T12:56:08.799Z,18.92
2017-06-22T12:57:21.336Z,18.81
2017-06-22T12:58:33.869Z,18.52
2017-06-22T12:59:46.139Z,18.46
2017-06-22T13:00:58.673Z,18.21
2017-06-22T13:02:11.201Z,18.21
2017-06-22T13:03:23.716Z,18.16
2017-06-22T13:04:36.261Z,18.05
2017-06-22T13:05:48.509Z,18.05
2017-06-22T13:07:00.781Z,17.94
2017-06-22T13:08:13.309Z,17.97
2017-06-22T13:09:25.535Z,17.9
2017-06-22T13:10:37.777Z,17.87
2017-06-22T13:11:50.320Z,17.79
2017-06-22T13:13:02.243Z,17.8
2017-06-22T13:14:14.485Z,17.82
2017-06-22T13:15:26.723Z,17.8
2017-06-22T13:16:39.298Z,17.79
2017-06-22T13:17:51.817Z,17.8
2017-06-22T13:19:03.765Z,17.75
2017-06-22T13:20:16.015Z,17.71
2017-06-22T13:21:28.211Z,17.75
2017-06-22T13:22:40.713Z,17.66
2017-06-22T13:23:53.249Z,17.78
2017-06-22T13:25:05.775Z,17.6
2017-06-22T13:26:17.995Z,17.68
2017-06-22T13:27:30.217Z,17.63
2017-06-22T13:28:42.462Z,17.75
2017-06-22T13:29:54.687Z,17.68
2017-06-22T13:31:06.947Z,17.76
2017-06-22T13:32:19.484Z,17.68
2017-06-22T13:33:32.021Z,17.69
2017-06-22T13:34:44.217Z,17.6
2017-06-22T13:35:56.762Z,17.68
2017-06-22T13:37:09.280Z,17.59
2017-06-22T13:38:21.808Z,17.56
2017-06-22T13:39:33.725Z,17.59
2017-06-22T13:40:46.243Z,17.59
2017-06-22T13:41:58.192Z,17.57
2017-06-22T13:43:10.430Z,17.68
2017-06-22T13:44:22.084Z,17.56
2017-06-22T13:45:34.600Z,17.54
2017-06-22T13:46:46.847Z,17.65
2017-06-22T13:47:59.074Z,17.57
2017-06-22T13:49:11.647Z,17.65
2017-06-22T13:50:24.171Z,17.66
2017-06-22T13:51:36.405Z,17.59
2017-06-22T13:52:48.948Z,17.6
2017-06-22T13:54:01.476Z,17.57
2017-06-22T13:55:14.025Z,17.53
2017-06-22T13:56:26.564Z,17.53
2017-06-22T13:57:39.102Z,17.65
2017-06-22T13:58:51.355Z,17.63
2017-06-22T14:00:03.582Z,17.66
2017-06-22T14:01:15.821Z,17.65
2017-06-22T14:02:28.048Z,17.73
2017-06-22T14:03:40.539Z,17.72
2017-06-22T14:04:53.039Z,17.66
2017-06-22T14:06:05.265Z,17.75
2017-06-22T14:07:17.191Z,17.72
2017-06-22T14:08:29.727Z,17.75
2017-06-22T14:09:41.652Z,17.75
2017-06-22T14:10:53.894Z,17.78
2017-06-22T14:12:06.115Z,17.69
2017-06-22T14:13:18.366Z,17.69
2017-06-22T14:14:30.606Z,17.69
2017-06-22T14:15:42.805Z,17.76
2017-06-22T14:16:55.023Z,17.79
2017-06-22T14:18:07.221Z,17.8
2017-06-22T14:19:19.447Z,17.86
2017-06-22T14:20:31.986Z,17.91
2017-06-22T14:21:44.229Z,17.95
2017-06-22T14:22:56.475Z,18
2017-06-22T14:24:08.718Z,18.06
2017-06-22T14:25:21.262Z,18.11
2017-06-22T14:26:33.168Z,18.23
2017-06-22T14:27:45.411Z,18.3
2017-06-22T14:28:57.611Z,18.43
2017-06-22T14:30:09.854Z,18.51
2017-06-22T14:31:22.374Z,18.64
2017-06-22T14:32:34.869Z,18.73
2017-06-22T14:33:46.812Z,18.83
2017-06-22T14:34:59.355Z,19.04
2017-06-22T14:36:11.880Z,19.11
2017-06-22T14:37:24.421Z,19.16
2017-06-22T14:38:36.955Z,19.3
2017-06-22T14:39:49.171Z,19.37
2017-06-22T14:41:01.713Z,19.37
2017-06-22T14:42:14.241Z,19.48
2017-06-22T14:43:26.814Z,19.52
2017-06-22T14:44:39.079Z,19.59
2017-06-22T14:45:51.029Z,19.6
2017-06-22T14:47:03.264Z,19.66
2017-06-22T14:48:15.514Z,19.71
2017-06-22T14:49:28.040Z,19.75
2017-06-22T14:50:40.565Z,19.77
2017-06-22T14:51:52.801Z,19.85
2017-06-22T14:53:05.344Z,19.92
2017-06-22T14:54:17.301Z,19.97
2017-06-22T14:55:29.861Z,19.97
2017-06-22T14:56:42.115Z,20.03
2017-06-22T14:57:54.663Z,20.03
2017-06-22T14:59:06.599Z,20.07
2017-06-22T15:00:19.148Z,20.1
2017-06-22T15:01:31.669Z,20.12
2017-06-22T15:02:43.915Z,20.22
2017-06-22T15:03:56.465Z,20.19
2017-06-22T15:05:08.731Z,20.15
2017-06-22T15:06:20.999Z,20.26
2017-06-22T15:07:32.928Z,20.18
2017-06-22T15:08:45.169Z,20.15
2017-06-22T15:09:57.678Z,20.15
2017-06-22T15:11:10.233Z,20.18
2017-06-22T15:12:22.787Z,20.11
2017-06-22T15:13:35.336Z,20.08
2017-06-22T15:14:47.857Z,20.08
2017-06-22T15:16:00.071Z,20.07
2017-06-22T15:17:12.620Z,20.07
2017-06-22T15:18:24.886Z,20.08
2017-06-22T15:19:37.429Z,20.04
2017-06-22T15:20:49.636Z,20.08
2017-06-22T15:22:02.175Z,20.11
2017-06-22T15:23:14.700Z,20.15
2017-06-22T15:24:27.226Z,20.18
2017-06-22T15:25:39.492Z,20.18
2017-06-22T15:26:52.037Z,20.15
2017-06-22T15:28:04.560Z,20.12
2017-06-22T15:29:17.079Z,20.03
2017-06-22T15:30:29.648Z,20.02
2017-06-22T15:31:41.875Z,20.04
2017-06-22T15:32:54.414Z,20.08
2017-06-22T15:34:06.930Z,20
2017-06-22T15:35:19.437Z,20.07